createdAt,value
2018-11-11T00:00:04.021Z,52.93
2018-11-11T00:02:33.661Z,51.63
2018-11-11T00:05:04.217Z,48.67
2018-11-11T00:07:33.833Z,51.80
2018-11-11T00:10:03.517Z,45.65
2018-11-11T00:12:36.997Z,53.58
2018-11-11T00:15:12.533Z,58.70
2018-11-11T00:17:43.720Z,53.60
2018-11-11T00:20:13.499Z,55.40
2018-11-11T00:22:43.129Z,51.27
2018-11-11T00:25:12.690Z,55.80
2018-11-11T00:27:44.525Z,53.87
2018-11-11T00:30:17.630Z,47.70
2018-11-11T00:32:49.541Z,47.13
2018-11-11T00:35:20.211Z,56.48
2018-11-11T00:37:49.941Z,53.40
2018-11-11T00:40:22.965Z,48.65
2018-11-11T00:42:55.265Z,50.07
2018-11-11T00:45:25.042Z,50.43
2018-11-11T00:47:55.653Z,58.63
2018-11-11T00:50:25.313Z,48.65
2018-11-11T00:52:56.237Z,48.73
2018-11-11T00:55:30.301Z,55.75
2018-11-11T00:58:05.601Z,54.47
2018-11-11T01:00:35.157Z,50.57
2018-11-11T01:03:09.929Z,58.73
2018-11-11T01:05:45.803Z,56.98
2018-11-11T01:08:15.424Z,45.88
2018-11-11T01:10:45.998Z,49.40
2018-11-11T01:13:15.837Z,60.00
2018-11-11T01:15:47.797Z,53.40
2018-11-11T01:18:17.478Z,59.53
2018-11-11T01:20:51.137Z,49.83
2018-11-11T01:23:21.937Z,49.70
2018-11-11T01:25:51.605Z,48.37
2018-11-11T01:28:23.325Z,52.17
2018-11-11T01:30:52.884Z,48.93
2018-11-11T01:33:24.861Z,59.23
2018-11-11T01:35:58.770Z,57.88
2018-11-11T01:38:30.721Z,49.55
2018-11-11T01:41:00.358Z,56.30
2018-11-11T01:43:31.205Z,56.07
2018-11-11T01:46:05.161Z,63.73
2018-11-11T01:48:36.870Z,62.10
2018-11-11T01:51:06.658Z,56.73
2018-11-11T01:53:36.327Z,54.30
2018-11-11T01:56:09.162Z,53.83
2018-11-11T01:58:40.166Z,67.37
2018-11-11T02:01:10.169Z,66.77
2018-11-11T02:03:49.862Z,75.83
2018-11-11T02:06:21.705Z,77.93
2018-11-11T02:08:56.490Z,70.77
2018-11-11T02:11:26.354Z,70.07
2018-11-11T02:13:56.273Z,63.93
2018-11-11T02:16:26.173Z,62.55
2018-11-11T02:18:55.865Z,80.47
2018-11-11T02:21:29.942Z,73.42
2018-11-11T02:24:00.745Z,77.35
2018-11-11T02:26:30.657Z,71.03
2018-11-11T02:29:00.549Z,61.83
2018-11-11T02:31:30.278Z,68.87
2018-11-11T02:34:00.062Z,62.93
2018-11-11T02:36:31.926Z,59.37
2018-11-11T02:39:01.591Z,75.43
2018-11-11T02:41:31.313Z,76.05
2018-11-11T02:44:00.973Z,76.23
2018-11-11T02:46:31.106Z,67.30
2018-11-11T02:49:01.722Z,73.50
2018-11-11T02:51:32.818Z,83.90
2018-11-11T02:54:03.819Z,95.63
2018-11-11T02:56:35.207Z,83.67
2018-11-11T02:59:07.130Z,72.23
2018-11-11T03:01:39.378Z,84.95
2018-11-11T03:04:10.748Z,85.97
2018-11-11T03:06:41.335Z,87.07
2018-11-11T03:09:12.341Z,83.40
2018-11-11T03:11:43.486Z,89.53
2018-11-11T03:14:13.305Z,83.77
2018-11-11T03:16:47.837Z,82.40
2018-11-11T03:19:18.670Z,95.73
2018-11-11T03:21:48.846Z,85.23
2018-11-11T03:24:19.737Z,84.03
2018-11-11T03:26:51.778Z,85.10
2018-11-11T03:29:23.454Z,87.50
2018-11-11T03:31:56.569Z,82.47
2018-11-11T03:34:26.497Z,78.70
2018-11-11T03:37:00.369Z,77.67
2018-11-11T03:39:30.573Z,99.37
2018-11-11T03:42:01.550Z,92.33
2018-11-11T03:44:33.458Z,89.50
2018-11-11T03:47:02.942Z,83.93
2018-11-11T03:49:32.454Z,98.15
2018-11-11T03:52:02.358Z,98.22
2018-11-11T03:54:32.031Z,100.63
2018-11-11T03:57:02.802Z,92.40
2018-11-11T03:59:32.570Z,88.27
2018-11-11T04:02:02.218Z,97.80
2018-11-11T04:04:36.134Z,89.10
2018-11-11T04:07:08.166Z,89.63
2018-11-11T04:09:41.690Z,98.10
2018-11-11T04:12:12.525Z,94.90
2018-11-11T04:14:45.530Z,126.53
2018-11-11T04:17:15.442Z,98.50
2018-11-11T04:19:45.507Z,122.10
2018-11-11T04:22:18.343Z,110.87
2018-11-11T04:24:52.186Z,116.25
2018-11-11T04:27:23.136Z,110.83
2018-11-11T04:29:56.131Z,111.57
2018-11-11T04:32:26.983Z,111.12
2018-11-11T04:34:59.894Z,120.30
2018-11-11T04:37:34.149Z,106.37
2018-11-11T04:40:04.278Z,103.00
2018-11-11T04:42:34.350Z,98.55
2018-11-11T04:45:03.963Z,123.72
2018-11-11T04:47:33.707Z,104.17
2018-11-11T04:50:07.333Z,79.37
2018-11-11T04:52:38.026Z,98.22
2018-11-11T04:55:08.514Z,89.47
2018-11-11T04:57:38.401Z,90.80
2018-11-11T05:00:10.314Z,84.97
2018-11-11T05:02:41.514Z,83.00
2018-11-11T05:05:13.033Z,84.85
2018-11-11T05:07:42.863Z,87.33
2018-11-11T05:10:13.413Z,96.00
2018-11-11T05:12:46.574Z,88.17
2018-11-11T05:15:16.547Z,90.13
2018-11-11T05:17:46.166Z,83.03
2018-11-11T05:20:15.902Z,86.83
2018-11-11T05:22:48.986Z,98.77
2018-11-11T05:25:19.318Z,88.73
2018-11-11T05:27:53.008Z,90.27
2018-11-11T05:30:23.285Z,82.83
2018-11-11T05:32:57.865Z,83.10
2018-11-11T05:35:31.469Z,83.47
2018-11-11T05:38:02.702Z,102.53
2018-11-11T05:40:33.740Z,74.50
2018-11-11T05:43:15.448Z,66.00
2018-11-11T05:45:47.286Z,71.13
2018-11-11T05:48:17.446Z,83.50
2018-11-11T05:50:48.462Z,79.40
2018-11-11T05:53:18.238Z,84.40
2018-11-11T05:55:48.160Z,88.97
2018-11-11T05:58:18.797Z,91.13
2018-11-11T06:00:49.477Z,101.40
2018-11-11T06:03:28.309Z,94.93
2018-11-11T06:06:05.182Z,87.85
2018-11-11T06:14:05.592Z,85.23
2018-11-11T06:16:39.869Z,91.73
2018-11-11T06:19:15.803Z,101.60
2018-11-11T06:21:47.394Z,84.37
2018-11-11T06:24:18.882Z,84.70
2018-11-11T06:26:53.910Z,78.00
2018-11-11T06:29:26.506Z,85.80
2018-11-11T06:31:58.338Z,79.90
2018-11-11T06:34:30.322Z,85.70
2018-11-11T06:37:01.558Z,83.75
2018-11-11T06:39:35.446Z,80.70
2018-11-11T06:42:06.190Z,74.73
2018-11-11T06:44:40.885Z,80.65
2018-11-11T06:47:11.414Z,80.53
2018-11-11T06:49:41.206Z,99.32
2018-11-11T06:52:12.090Z,98.07
2018-11-11T06:54:43.958Z,79.17
2018-11-11T06:57:16.998Z,82.47
2018-11-11T06:59:47.706Z,72.23
2018-11-11T07:02:17.294Z,85.80
2018-11-11T07:04:46.910Z,82.10
2018-11-11T07:07:21.032Z,73.52
2018-11-11T07:09:50.766Z,74.17
2018-11-11T07:12:20.362Z,79.03
2018-11-11T07:14:49.877Z,85.97
2018-11-11T07:17:19.726Z,83.63
2018-11-11T07:19:49.707Z,94.97
2018-11-11T07:22:20.854Z,82.63
2018-11-11T07:24:50.457Z,75.43
2018-11-11T07:27:21.954Z,78.07
2018-11-11T07:29:51.422Z,66.27
2018-11-11T07:32:21.022Z,81.33
2018-11-11T07:34:51.717Z,61.30
2018-11-11T07:37:21.562Z,66.53
2018-11-11T07:39:51.102Z,86.43
2018-11-11T07:42:24.203Z,78.47
2018-11-11T07:44:53.712Z,73.33
2018-11-11T07:47:24.166Z,77.27
2018-11-11T07:49:53.969Z,72.57
2018-11-11T07:52:23.782Z,81.43
2018-11-11T07:54:54.409Z,59.10
2018-11-11T07:57:31.370Z,64.67
2018-11-11T08:00:01.153Z,59.53
2018-11-11T08:02:30.805Z,72.93
2018-11-11T08:05:00.569Z,63.77
2018-11-11T08:07:34.962Z,70.50
2018-11-11T08:10:15.575Z,61.47
2018-11-11T08:12:45.637Z,68.80
2018-11-11T08:15:15.422Z,63.40
2018-11-11T08:17:46.214Z,71.13
2018-11-11T08:20:16.110Z,63.30
2018-11-11T08:22:47.006Z,66.93
2018-11-11T08:25:17.798Z,67.50
2018-11-11T08:27:47.606Z,74.30
2018-11-11T08:30:17.483Z,68.27
2018-11-11T08:32:53.130Z,69.07
2018-11-11T08:35:22.973Z,58.50
2018-11-11T08:37:52.534Z,65.87
2018-11-11T08:40:24.500Z,71.40
2018-11-11T08:42:54.178Z,57.33
2018-11-11T08:45:33.486Z,65.97
2018-11-11T08:48:03.466Z,60.93
2018-11-11T08:50:33.120Z,67.60
2018-11-11T08:53:07.514Z,59.17
2018-11-11T08:55:37.086Z,58.87
2018-11-11T08:58:06.926Z,56.60
2018-11-11T09:00:36.478Z,52.00
2018-11-11T09:03:07.030Z,48.47
2018-11-11T09:05:37.695Z,46.87
2018-11-11T09:08:07.242Z,55.43
2018-11-11T09:10:36.730Z,55.83
2018-11-11T09:13:06.394Z,49.13
2018-11-11T09:15:36.130Z,49.47
2018-11-11T09:18:05.834Z,58.90
2018-11-11T09:20:35.736Z,53.13
2018-11-11T09:23:06.574Z,44.83
2018-11-11T09:25:37.094Z,45.17
2018-11-11T09:28:08.811Z,43.80
2018-11-11T09:30:38.446Z,55.73
2018-11-11T09:33:09.030Z,40.50
2018-11-11T09:35:38.675Z,60.13
2018-11-11T09:38:09.734Z,43.37
2018-11-11T09:40:40.332Z,52.70
2018-11-11T09:43:10.882Z,52.63
2018-11-11T09:45:41.446Z,45.03
2018-11-11T09:48:11.242Z,45.87
2018-11-11T09:50:46.842Z,44.50
2018-11-11T09:53:18.843Z,40.80
2018-11-11T09:55:50.538Z,37.00
2018-11-11T09:58:22.310Z,41.33
2018-11-11T10:00:53.226Z,40.17
2018-11-11T10:03:31.297Z,30.60
2018-11-11T10:06:19.769Z,35.07
2018-11-11T10:09:00.982Z,32.07
2018-11-11T10:11:50.602Z,39.00
2018-11-11T10:14:31.449Z,32.20
2018-11-11T10:17:08.230Z,32.27
2018-11-11T10:19:45.543Z,25.63
2018-11-11T10:22:23.294Z,33.70
2018-11-11T10:27:00.011Z,25.13
2018-11-11T10:29:35.008Z,31.00
2018-11-11T10:32:18.394Z,35.47
2018-11-11T10:34:54.953Z,28.53
2018-11-11T10:37:27.601Z,38.40
2018-11-11T10:41:01.778Z,40.07
2018-11-11T10:43:40.778Z,43.13
2018-11-11T10:46:22.654Z,46.70
2018-11-11T10:48:56.794Z,31.00
2018-11-11T10:51:26.646Z,33.13
2018-11-11T10:53:58.313Z,28.83
2018-11-11T10:56:27.890Z,22.10
2018-11-11T10:58:57.562Z,32.00
2018-11-11T11:01:31.698Z,26.23
2018-11-11T11:04:01.422Z,26.13
2018-11-11T11:06:36.766Z,25.80
2018-11-11T11:09:12.774Z,20.07
2018-11-11T11:11:43.557Z,26.30
2018-11-11T11:14:14.654Z,21.30
2018-11-11T11:16:44.503Z,25.77
2018-11-11T11:19:14.050Z,27.53
2018-11-11T11:21:43.882Z,26.03
2018-11-11T11:24:13.699Z,22.53
2018-11-11T11:26:43.670Z,20.37
2018-11-11T11:29:13.370Z,25.20
2018-11-11T11:31:43.943Z,19.00
2018-11-11T11:34:13.563Z,23.50
2018-11-11T11:36:47.918Z,20.40
2018-11-11T11:39:17.502Z,19.97
2018-11-11T11:41:47.022Z,25.43
2018-11-11T11:44:18.668Z,21.50
2018-11-11T11:46:49.058Z,22.63
2018-11-11T11:49:18.566Z,24.53
2018-11-11T11:51:48.152Z,23.40
2018-11-11T11:54:17.778Z,21.47
2018-11-11T11:56:48.433Z,21.43
2018-11-11T11:59:19.006Z,19.57
2018-11-11T12:01:48.589Z,15.70
2018-11-11T12:04:19.090Z,17.30
2018-11-11T12:06:48.626Z,20.30
2018-11-11T12:09:19.427Z,23.77
2018-11-11T12:11:49.991Z,18.67
2018-11-11T12:14:19.569Z,17.53
2018-11-11T12:16:51.144Z,19.80
2018-11-11T12:19:20.622Z,24.63
2018-11-11T12:21:51.362Z,26.10
2018-11-11T12:24:21.167Z,22.47
2018-11-11T12:26:52.054Z,19.17
2018-11-11T12:29:22.634Z,22.27
2018-11-11T12:31:52.139Z,26.70
2018-11-11T12:34:22.954Z,19.90
2018-11-11T12:36:52.807Z,23.33
2018-11-11T12:39:23.648Z,17.30
2018-11-11T12:41:55.490Z,19.90
2018-11-11T12:44:25.328Z,18.80
2018-11-11T12:46:55.119Z,24.10
2018-11-11T12:49:25.714Z,19.60
2018-11-11T12:51:56.370Z,22.40
2018-11-11T12:54:29.398Z,21.50
2018-11-11T12:57:03.714Z,24.77
2018-11-11T12:59:33.198Z,24.00
2018-11-11T13:02:03.974Z,27.00
2018-11-11T13:04:34.689Z,26.67
2018-11-11T13:07:07.774Z,29.77
2018-11-11T13:09:37.258Z,31.43
2018-11-11T13:12:15.401Z,29.70
2018-11-11T13:14:47.114Z,33.50
2018-11-11T13:17:17.240Z,32.27
2018-11-11T13:19:47.195Z,27.50
2018-11-11T13:22:17.231Z,32.70
2018-11-11T13:24:46.767Z,33.10
2018-11-11T13:27:16.594Z,37.73
2018-11-11T13:29:48.454Z,31.17
2018-11-11T13:32:18.370Z,32.30
2018-11-11T13:34:48.266Z,33.97
2018-11-11T13:37:18.127Z,34.57
2018-11-11T13:39:49.090Z,34.90
2018-11-11T13:42:22.414Z,38.10
2018-11-11T13:44:52.231Z,36.37
2018-11-11T13:47:23.097Z,38.87
2018-11-11T13:49:53.081Z,38.73
2018-11-11T13:52:24.738Z,39.77
2018-11-11T13:54:55.252Z,43.43
2018-11-11T13:57:25.099Z,42.13
2018-11-11T13:59:54.974Z,41.53
2018-11-11T14:02:25.638Z,39.97
2018-11-11T14:04:55.226Z,37.87
2018-11-11T14:07:25.970Z,44.43
2018-11-11T14:09:55.626Z,46.30
2018-11-11T14:12:26.154Z,54.90
2018-11-11T14:14:56.925Z,44.47
2018-11-11T14:17:27.531Z,47.93
2018-11-11T14:20:02.891Z,43.53
2018-11-11T14:22:37.042Z,43.30
2018-11-11T14:25:14.168Z,38.27
2018-11-11T14:27:44.278Z,37.80
2018-11-11T14:30:19.407Z,38.83
2018-11-11T14:32:50.062Z,35.93
2018-11-11T14:35:20.898Z,36.77
2018-11-11T14:37:51.827Z,39.50
2018-11-11T14:40:26.810Z,35.57
2018-11-11T14:42:57.182Z,33.90
2018-11-11T14:45:27.387Z,31.73
2018-11-11T14:47:58.442Z,33.13
2018-11-11T14:50:29.221Z,34.40
2018-11-11T14:53:04.420Z,34.27
2018-11-11T14:55:37.078Z,37.30
2018-11-11T14:58:10.645Z,36.50
2018-11-11T15:00:40.194Z,34.67
2018-11-11T15:03:14.606Z,40.67
2018-11-11T15:05:46.186Z,29.70
2018-11-11T15:08:16.910Z,35.40
2018-11-11T15:10:46.574Z,49.37
2018-11-11T15:13:16.742Z,36.07
2018-11-11T15:15:49.083Z,36.97
2018-11-11T15:18:18.625Z,40.93
2018-11-11T15:20:49.459Z,32.90
2018-11-11T15:23:19.107Z,34.13
2018-11-11T15:25:49.028Z,34.67
2018-11-11T15:28:19.591Z,34.23
2018-11-11T15:30:49.425Z,39.60
2018-11-11T15:33:19.110Z,42.60
2018-11-11T15:35:48.838Z,35.23
2018-11-11T15:38:19.594Z,35.13
2018-11-11T15:40:49.382Z,41.57
2018-11-11T15:43:19.146Z,45.30
2018-11-11T15:45:48.828Z,36.57
2018-11-11T15:48:23.019Z,40.40
2018-11-11T15:50:52.615Z,38.87
2018-11-11T15:53:22.135Z,45.57
2018-11-11T15:55:52.635Z,35.73
2018-11-11T15:58:25.414Z,35.10
2018-11-11T16:00:56.227Z,36.77
2018-11-11T16:03:27.679Z,36.17
2018-11-11T16:05:57.146Z,35.83
2018-11-11T16:08:30.034Z,40.27
2018-11-11T16:11:00.893Z,38.20
2018-11-11T16:13:32.431Z,47.73
2018-11-11T16:16:02.911Z,44.07
2018-11-11T16:18:37.430Z,41.07
2018-11-11T16:21:06.962Z,43.27
2018-11-11T16:23:36.503Z,41.10
2018-11-11T16:26:09.419Z,40.93
2018-11-11T16:28:39.031Z,45.57
2018-11-11T16:31:08.811Z,43.30
2018-11-11T16:33:38.680Z,38.97
2018-11-11T16:36:12.171Z,48.43
2018-11-11T16:38:41.994Z,49.90
2018-11-11T16:41:11.800Z,38.53
2018-11-11T16:43:44.911Z,45.20
2018-11-11T16:46:19.958Z,44.63
2018-11-11T16:48:57.130Z,52.27
2018-11-11T16:51:27.182Z,49.93
2018-11-11T16:53:56.743Z,54.37
2018-11-11T16:56:27.282Z,67.87
2018-11-11T16:59:07.719Z,47.17
2018-11-11T17:01:37.569Z,53.93
2018-11-11T17:04:07.531Z,51.90
2018-11-11T17:06:37.152Z,52.50
2018-11-11T17:09:11.862Z,53.70
2018-11-11T17:11:42.399Z,58.73
2018-11-11T17:14:18.005Z,64.27
2018-11-11T17:16:47.371Z,58.50
2018-11-11T17:19:19.103Z,57.97
2018-11-11T17:21:48.896Z,59.40
2018-11-11T17:24:19.459Z,49.77
2018-11-11T17:26:54.607Z,51.63
2018-11-11T17:29:25.154Z,54.93
2018-11-11T17:31:54.811Z,49.40
2018-11-11T17:34:25.604Z,56.17
2018-11-11T17:36:56.383Z,51.93
2018-11-11T17:39:27.046Z,53.63
2018-11-11T17:41:56.530Z,50.57
2018-11-11T17:44:27.071Z,54.07
2018-11-11T17:46:57.844Z,55.13
2018-11-11T17:49:27.647Z,59.73
2018-11-11T17:51:57.286Z,59.63
2018-11-11T17:54:32.269Z,64.67
2018-11-11T17:57:01.886Z,67.60
2018-11-11T17:59:35.735Z,65.33
2018-11-11T18:02:09.171Z,56.90
2018-11-11T18:04:38.722Z,55.40
2018-11-11T18:07:08.199Z,61.33
2018-11-11T18:09:38.709Z,54.37
2018-11-11T18:12:08.267Z,58.13
2018-11-11T18:14:37.782Z,54.87
2018-11-11T18:17:07.366Z,65.93
2018-11-11T18:19:43.177Z,74.27
2018-11-11T18:22:14.027Z,55.47
2018-11-11T18:24:45.886Z,62.87
2018-11-11T18:27:15.777Z,54.00
2018-11-11T18:29:47.409Z,69.67
2018-11-11T18:32:21.455Z,54.60
2018-11-11T18:34:51.988Z,53.40
2018-11-11T18:37:27.083Z,48.20
2018-11-11T18:39:56.632Z,54.20
2018-11-11T18:42:26.222Z,56.13
2018-11-11T18:44:57.039Z,57.63
2018-11-11T18:47:26.706Z,55.63
2018-11-11T18:49:57.218Z,45.97
2018-11-11T18:52:26.939Z,44.87
2018-11-11T18:54:56.619Z,51.33
2018-11-11T18:57:28.417Z,42.93
2018-11-11T18:59:58.167Z,57.97
2018-11-11T19:02:31.343Z,53.40
2018-11-11T19:05:00.951Z,44.73
2018-11-11T19:07:34.830Z,49.27
2018-11-11T19:10:07.277Z,47.27
2018-11-11T19:12:36.902Z,50.00
2018-11-11T19:15:13.631Z,49.63
2018-11-11T19:17:44.166Z,40.83
2018-11-11T19:20:18.390Z,38.63
2018-11-11T19:22:48.951Z,34.53
2018-11-11T19:25:22.973Z,42.60
2018-11-11T19:27:55.280Z,48.37
2018-11-11T19:33:03.955Z,45.30
2018-11-11T19:35:33.675Z,38.30
2018-11-11T19:38:03.286Z,46.40
2018-11-11T19:40:33.859Z,47.97
2018-11-11T19:43:05.767Z,40.07
2018-11-11T19:45:36.780Z,40.13
2018-11-11T19:48:06.431Z,45.77
2018-11-11T19:50:36.279Z,55.33
2018-11-11T19:53:05.979Z,51.63
2018-11-11T19:55:36.976Z,41.43
2018-11-11T19:58:06.627Z,45.77
2018-11-11T20:00:39.264Z,47.93
2018-11-11T20:03:11.002Z,46.80
2018-11-11T20:05:40.956Z,40.90
2018-11-11T20:08:10.736Z,48.30
2018-11-11T20:10:41.488Z,44.13
2018-11-11T20:13:15.132Z,46.97
2018-11-11T20:15:50.335Z,44.53
2018-11-11T20:18:21.048Z,47.23
2018-11-11T20:20:50.756Z,50.00
2018-11-11T20:23:20.407Z,50.17
2018-11-11T20:25:51.296Z,54.53
2018-11-11T20:28:21.025Z,57.43
2018-11-11T20:30:51.955Z,55.37
2018-11-11T20:33:22.640Z,49.93
2018-11-11T20:35:53.507Z,44.60
2018-11-11T20:38:23.151Z,43.17
2018-11-11T20:40:54.092Z,52.00
2018-11-11T20:43:27.559Z,61.17
2018-11-11T20:45:57.075Z,50.30
2018-11-11T20:48:30.051Z,56.07
2018-11-11T20:50:59.983Z,53.80
2018-11-11T20:53:31.700Z,50.57
2018-11-11T20:56:01.382Z,46.40
2018-11-11T20:58:30.886Z,57.00
2018-11-11T21:01:02.705Z,53.67
2018-11-11T21:03:32.357Z,59.50
2018-11-11T21:06:03.979Z,53.20
2018-11-11T21:08:33.683Z,48.40
2018-11-11T21:11:03.279Z,66.07
2018-11-11T21:13:34.771Z,49.53
2018-11-11T21:16:04.499Z,49.20
2018-11-11T21:18:36.067Z,50.73
2018-11-11T21:21:05.948Z,51.87
2018-11-11T21:23:36.583Z,59.50
2018-11-11T21:26:07.559Z,54.93
2018-11-11T21:28:40.635Z,65.80
2018-11-11T21:31:11.516Z,51.50
2018-11-11T21:33:41.203Z,49.53
2018-11-11T21:36:12.675Z,54.80
2018-11-11T21:38:43.239Z,51.13
2018-11-11T21:41:16.479Z,47.57
2018-11-11T21:43:45.967Z,45.17
2018-11-11T21:46:19.020Z,50.97
2018-11-11T21:48:48.845Z,45.67
2018-11-11T21:51:18.760Z,67.13
2018-11-11T21:53:48.588Z,45.33
2018-11-11T21:56:18.251Z,50.97
2018-11-11T21:58:47.782Z,49.30
2018-11-11T22:01:18.294Z,42.67
2018-11-11T22:03:50.151Z,46.80
2018-11-11T22:06:27.611Z,49.90
2018-11-11T22:08:57.422Z,47.13
2018-11-11T22:11:27.302Z,50.07
2018-11-11T22:13:57.227Z,40.93
2018-11-11T22:16:27.344Z,42.20
2018-11-11T22:18:59.259Z,42.43
2018-11-11T22:21:29.315Z,39.70
2018-11-11T22:24:01.179Z,48.07
2018-11-11T22:26:30.867Z,43.70
2018-11-11T22:29:00.623Z,52.17
2018-11-11T22:31:39.711Z,43.43
2018-11-11T22:34:14.981Z,43.63
2018-11-11T22:36:47.555Z,42.93
2018-11-11T22:39:17.252Z,42.97
2018-11-11T22:41:47.011Z,45.50
2018-11-11T22:44:16.723Z,41.13
2018-11-11T22:46:51.303Z,49.70
2018-11-11T22:49:21.243Z,46.93
2018-11-11T22:51:51.111Z,44.20
2018-11-11T22:54:22.183Z,44.67
2018-11-11T22:56:53.135Z,50.00
2018-11-11T22:59:26.011Z,51.03
2018-11-11T23:01:58.187Z,41.07
2018-11-11T23:04:33.919Z,46.00
2018-11-11T23:07:05.547Z,44.63
2018-11-11T23:09:36.375Z,42.30
2018-11-11T23:12:08.331Z,56.60
2018-11-11T23:14:40.139Z,43.47
2018-11-11T23:17:12.855Z,52.37
2018-11-11T23:19:42.519Z,38.63
2018-11-11T23:22:12.091Z,44.03
2018-11-11T23:24:43.668Z,44.73
2018-11-11T23:27:13.255Z,51.90
2018-11-11T23:29:42.827Z,46.07
2018-11-11T23:32:12.359Z,44.67
2018-11-11T23:34:41.947Z,45.75
2018-11-11T23:37:11.807Z,54.77
2018-11-11T23:39:41.483Z,48.77
2018-11-11T23:42:11.345Z,39.73
2018-11-11T23:44:42.271Z,54.27
2018-11-11T23:47:14.095Z,56.60
2018-11-11T23:49:44.023Z,46.60
2018-11-11T23:52:15.864Z,51.87
2018-11-11T23:54:55.807Z,51.10
2018-11-11T23:57:27.763Z,48.70
2018-11-11T23:59:58.408Z,57.47
